<?xml version="1.0" encoding="UTF-8" standalone="no" ?>
<gpx xmlns="http://www.topografix.com/GPX/1/1" xmlns:xsi="http://www.w3.org/2001/XMLSchema-instance" xsi:schemaLocation="http://www.topografix.com/GPX/1/1 http://www.topografix.com/GPX/1/1/gpx.xsd" version="1.1" creator="VisuGPX - https://www.visugpx.com">
  <metadata>
    <name>J3 Aix StLaurent la Prée</name>
    <desc><![CDATA[gnerando idor:81764008_13786731_20053845]]></desc>
  </metadata>
  <trk>
    <name><![CDATA[Aix_TourIle_7.6km-8176408]]></name>
    <extensions>
      <line xmlns="http://www.topografix.com/GPX/gpx_style/0/2">
        <color>FF0000</color>
        <width>4</width>
      </line>
    </extensions>
    <trkseg>
      <trkpt lat="46.00817" lon="-1.17511">
        <ele>3</ele>
        <time>2025-01-08T15:12:06.000Z</time>
      </trkpt>
      <trkpt lat="46.00872" lon="-1.1745">
        <ele>2</ele>
        <time>2025-01-08T15:13:12.165Z</time>
      </trkpt>
      <trkpt lat="46.00941" lon="-1.17444">
        <ele>3</ele>
        <time>2025-01-08T15:14:24.167Z</time>
      </trkpt>
      <trkpt lat="46.00984" lon="-1.17543">
        <ele>4</ele>
        <time>2025-01-08T15:15:48.076Z</time>
      </trkpt>
      <trkpt lat="46.01032" lon="-1.17523">
        <ele>4</ele>
        <time>2025-01-08T15:16:37.838Z</time>
      </trkpt>
      <trkpt lat="46.01109" lon="-1.17463">
        <ele>6</ele>
        <time>2025-01-08T15:18:11.472Z</time>
      </trkpt>
      <trkpt lat="46.01081" lon="-1.1742">
        <ele>6</ele>
        <time>2025-01-08T15:18:52.240Z</time>
      </trkpt>
      <trkpt lat="46.01174" lon="-1.1725">
        <ele>5</ele>
        <time>2025-01-08T15:21:18.889Z</time>
      </trkpt>
      <trkpt lat="46.0121" lon="-1.17233">
        <ele>5</ele>
        <time>2025-01-08T15:21:56.618Z</time>
      </trkpt>
      <trkpt lat="46.01269" lon="-1.17267">
        <ele>6</ele>
        <time>2025-01-08T15:23:03.076Z</time>
      </trkpt>
      <trkpt lat="46.01285" lon="-1.17294">
        <ele>6</ele>
        <time>2025-01-08T15:23:27.623Z</time>
      </trkpt>
      <trkpt lat="46.01311" lon="-1.17276">
        <ele>5</ele>
        <time>2025-01-08T15:23:53.503Z</time>
      </trkpt>
      <trkpt lat="46.01357" lon="-1.17303">
        <ele>4</ele>
        <time>2025-01-08T15:24:40.035Z</time>
      </trkpt>
      <trkpt lat="46.01428" lon="-1.1736">
        <ele>2</ele>
        <time>2025-01-08T15:25:55.167Z</time>
      </trkpt>
      <trkpt lat="46.01514" lon="-1.17377">
        <ele>2</ele>
        <time>2025-01-08T15:27:21.613Z</time>
      </trkpt>
      <trkpt lat="46.01616" lon="-1.17405">
        <ele>2</ele>
        <time>2025-01-08T15:29:05.018Z</time>
      </trkpt>
      <trkpt lat="46.01777" lon="-1.1739">
        <ele>2</ele>
        <time>2025-01-08T15:31:45.683Z</time>
      </trkpt>
      <trkpt lat="46.01841" lon="-1.17259">
        <ele>5</ele>
        <time>2025-01-08T15:33:46.207Z</time>
      </trkpt>
      <trkpt lat="46.01936" lon="-1.17124">
        <ele>5</ele>
        <time>2025-01-08T15:35:59.119Z</time>
      </trkpt>
      <trkpt lat="46.02009" lon="-1.1689">
        <ele>7</ele>
        <time>2025-01-08T15:39:02.797Z</time>
      </trkpt>
      <trkpt lat="46.02022" lon="-1.16669">
        <ele>6</ele>
        <time>2025-01-08T15:41:33.146Z</time>
      </trkpt>
      <trkpt lat="46.01853" lon="-1.16431">
        <ele>3</ele>
        <time>2025-01-08T15:45:19.593Z</time>
      </trkpt>
      <trkpt lat="46.0185" lon="-1.16208">
        <ele>6</ele>
        <time>2025-01-08T15:48:03.429Z</time>
      </trkpt>
      <trkpt lat="46.01858" lon="-1.16111">
        <ele>7</ele>
        <time>2025-01-08T15:49:14.145Z</time>
      </trkpt>
      <trkpt lat="46.01838" lon="-1.16023">
        <ele>5</ele>
        <time>2025-01-08T15:50:12.436Z</time>
      </trkpt>
      <trkpt lat="46.01826" lon="-1.15599">
        <ele>5</ele>
        <time>2025-01-08T15:55:05.892Z</time>
      </trkpt>
      <trkpt lat="46.01894" lon="-1.15586">
        <ele>9</ele>
        <time>2025-01-08T15:56:28.184Z</time>
      </trkpt>
      <trkpt lat="46.01929" lon="-1.15506">
        <ele>7</ele>
        <time>2025-01-08T15:57:27.822Z</time>
      </trkpt>
      <trkpt lat="46.01987" lon="-1.15526">
        <ele>5</ele>
        <time>2025-01-08T15:58:21.501Z</time>
      </trkpt>
      <trkpt lat="46.02018" lon="-1.15601">
        <ele>9</ele>
        <time>2025-01-08T15:59:36.093Z</time>
      </trkpt>
      <trkpt lat="46.02073" lon="-1.15648">
        <ele>8</ele>
        <time>2025-01-08T16:00:36.816Z</time>
      </trkpt>
      <trkpt lat="46.02173" lon="-1.15869">
        <ele>12</ele>
        <time>2025-01-08T16:03:52.085Z</time>
      </trkpt>
      <trkpt lat="46.02238" lon="-1.16015">
        <ele>10</ele>
        <time>2025-01-08T16:05:46.094Z</time>
      </trkpt>
      <trkpt lat="46.02288" lon="-1.16107">
        <ele>11</ele>
        <time>2025-01-08T16:07:10.029Z</time>
      </trkpt>
      <trkpt lat="46.02346" lon="-1.16152">
        <ele>9</ele>
        <time>2025-01-08T16:08:09.886Z</time>
      </trkpt>
      <trkpt lat="46.02349" lon="-1.16202">
        <ele>11</ele>
        <time>2025-01-08T16:08:51.564Z</time>
      </trkpt>
      <trkpt lat="46.02396" lon="-1.16247">
        <ele>8</ele>
        <time>2025-01-08T16:09:40.742Z</time>
      </trkpt>
      <trkpt lat="46.0241" lon="-1.16305">
        <ele>7</ele>
        <time>2025-01-08T16:10:20.285Z</time>
      </trkpt>
      <trkpt lat="46.02395" lon="-1.16393">
        <ele>12</ele>
        <time>2025-01-08T16:11:41.317Z</time>
      </trkpt>
      <trkpt lat="46.02437" lon="-1.16448">
        <ele>11</ele>
        <time>2025-01-08T16:12:34.895Z</time>
      </trkpt>
      <trkpt lat="46.02428" lon="-1.16511">
        <ele>14</ele>
        <time>2025-01-08T16:13:30.076Z</time>
      </trkpt>
      <trkpt lat="46.02449" lon="-1.16556">
        <ele>11</ele>
        <time>2025-01-08T16:14:02.880Z</time>
      </trkpt>
      <trkpt lat="46.02492" lon="-1.16708">
        <ele>9</ele>
        <time>2025-01-08T16:15:50.465Z</time>
      </trkpt>
      <trkpt lat="46.02446" lon="-1.16683">
        <ele>12</ele>
        <time>2025-01-08T16:16:49.978Z</time>
      </trkpt>
      <trkpt lat="46.0241" lon="-1.16799">
        <ele>10</ele>
        <time>2025-01-08T16:18:11.993Z</time>
      </trkpt>
      <trkpt lat="46.02382" lon="-1.16855">
        <ele>7</ele>
        <time>2025-01-08T16:18:53.745Z</time>
      </trkpt>
      <trkpt lat="46.02381" lon="-1.16902">
        <ele>6</ele>
        <time>2025-01-08T16:19:23.386Z</time>
      </trkpt>
      <trkpt lat="46.02449" lon="-1.1687">
        <ele>7</ele>
        <time>2025-01-08T16:20:37.787Z</time>
      </trkpt>
      <trkpt lat="46.02472" lon="-1.16887">
        <ele>5</ele>
        <time>2025-01-08T16:21:00.314Z</time>
      </trkpt>
      <trkpt lat="46.02436" lon="-1.17044">
        <ele>3</ele>
        <time>2025-01-08T16:22:48.732Z</time>
      </trkpt>
      <trkpt lat="46.02384" lon="-1.17149">
        <ele>3</ele>
        <time>2025-01-08T16:24:17.911Z</time>
      </trkpt>
      <trkpt lat="46.0239" lon="-1.17274">
        <ele>4</ele>
        <time>2025-01-08T16:25:47.695Z</time>
      </trkpt>
      <trkpt lat="46.02428" lon="-1.17396">
        <ele>3</ele>
        <time>2025-01-08T16:27:17.157Z</time>
      </trkpt>
      <trkpt lat="46.02419" lon="-1.1746">
        <ele>3</ele>
        <time>2025-01-08T16:28:02.309Z</time>
      </trkpt>
      <trkpt lat="46.02387" lon="-1.17515">
        <ele>2</ele>
        <time>2025-01-08T16:28:48.989Z</time>
      </trkpt>
      <trkpt lat="46.02326" lon="-1.1751">
        <ele>4</ele>
        <time>2025-01-08T16:29:56.424Z</time>
      </trkpt>
      <trkpt lat="46.02285" lon="-1.17526">
        <ele>4</ele>
        <time>2025-01-08T16:30:38.726Z</time>
      </trkpt>
      <trkpt lat="46.02139" lon="-1.17659">
        <ele>2</ele>
        <time>2025-01-08T16:33:24.784Z</time>
      </trkpt>
      <trkpt lat="46.02011" lon="-1.17621">
        <ele>5</ele>
        <time>2025-01-08T16:35:44.603Z</time>
      </trkpt>
      <trkpt lat="46.01904" lon="-1.17647">
        <ele>3</ele>
        <time>2025-01-08T16:37:26.769Z</time>
      </trkpt>
      <trkpt lat="46.01872" lon="-1.1763">
        <ele>3</ele>
        <time>2025-01-08T16:38:00.735Z</time>
      </trkpt>
      <trkpt lat="46.01789" lon="-1.17637">
        <ele>3</ele>
        <time>2025-01-08T16:39:23.532Z</time>
      </trkpt>
      <trkpt lat="46.01627" lon="-1.17697">
        <ele>3</ele>
        <time>2025-01-08T16:42:10.108Z</time>
      </trkpt>
      <trkpt lat="46.01595" lon="-1.17739">
        <ele>3</ele>
        <time>2025-01-08T16:42:53.226Z</time>
      </trkpt>
      <trkpt lat="46.01518" lon="-1.17759">
        <ele>3</ele>
        <time>2025-01-08T16:44:11.143Z</time>
      </trkpt>
      <trkpt lat="46.01449" lon="-1.17754">
        <ele>2</ele>
        <time>2025-01-08T16:45:16.971Z</time>
      </trkpt>
      <trkpt lat="46.01429" lon="-1.17739">
        <ele>3</ele>
        <time>2025-01-08T16:45:42.812Z</time>
      </trkpt>
      <trkpt lat="46.01335" lon="-1.17781">
        <ele>3</ele>
        <time>2025-01-08T16:47:20.824Z</time>
      </trkpt>
      <trkpt lat="46.01433" lon="-1.17729">
        <ele>3</ele>
        <time>2025-01-08T16:49:04.831Z</time>
      </trkpt>
      <trkpt lat="46.0145" lon="-1.17664">
        <ele>5</ele>
        <time>2025-01-08T16:49:59.589Z</time>
      </trkpt>
      <trkpt lat="46.01415" lon="-1.1763">
        <ele>5</ele>
        <time>2025-01-08T16:50:41.634Z</time>
      </trkpt>
      <trkpt lat="46.01358" lon="-1.17655">
        <ele>6</ele>
        <time>2025-01-08T16:51:44.151Z</time>
      </trkpt>
      <trkpt lat="46.01308" lon="-1.17722">
        <ele>5</ele>
        <time>2025-01-08T16:52:49.198Z</time>
      </trkpt>
      <trkpt lat="46.01239" lon="-1.17707">
        <ele>6</ele>
        <time>2025-01-08T16:54:01.852Z</time>
      </trkpt>
      <trkpt lat="46.01173" lon="-1.177">
        <ele>5</ele>
        <time>2025-01-08T16:55:04.788Z</time>
      </trkpt>
      <trkpt lat="46.01188" lon="-1.17734">
        <ele>5</ele>
        <time>2025-01-08T16:55:32.646Z</time>
      </trkpt>
      <trkpt lat="46.01159" lon="-1.17749">
        <ele>4</ele>
        <time>2025-01-08T16:56:00.470Z</time>
      </trkpt>
      <trkpt lat="46.01125" lon="-1.17725">
        <ele>4</ele>
        <time>2025-01-08T16:56:38.179Z</time>
      </trkpt>
      <trkpt lat="46.01064" lon="-1.17715">
        <ele>3</ele>
        <time>2025-01-08T16:57:36.357Z</time>
      </trkpt>
      <trkpt lat="46.01033" lon="-1.17725">
        <ele>3</ele>
        <time>2025-01-08T16:58:07.993Z</time>
      </trkpt>
      <trkpt lat="46.01023" lon="-1.17774">
        <ele>3</ele>
        <time>2025-01-08T16:58:43.316Z</time>
      </trkpt>
      <trkpt lat="46.01021" lon="-1.17838">
        <ele>2</ele>
        <time>2025-01-08T16:59:24.704Z</time>
      </trkpt>
      <trkpt lat="46.00942" lon="-1.1786">
        <ele>2</ele>
        <time>2025-01-08T17:00:44.833Z</time>
      </trkpt>
      <trkpt lat="46.00924" lon="-1.17854">
        <ele>2</ele>
        <time>2025-01-08T17:01:03.232Z</time>
      </trkpt>
      <trkpt lat="46.00862" lon="-1.17785">
        <ele>3</ele>
        <time>2025-01-08T17:02:24.420Z</time>
      </trkpt>
      <trkpt lat="46.00803" lon="-1.17694">
        <ele>3</ele>
        <time>2025-01-08T17:03:50.523Z</time>
      </trkpt>
      <trkpt lat="46.00794" lon="-1.17611">
        <ele>3</ele>
        <time>2025-01-08T17:04:48.627Z</time>
      </trkpt>
      <trkpt lat="46.00799" lon="-1.17542">
        <ele>3</ele>
        <time>2025-01-08T17:05:36.611Z</time>
      </trkpt>
      <trkpt lat="46.00815" lon="-1.17512">
        <ele>3</ele>
        <time>2025-01-08T17:06:02.773Z</time>
        <extensions>
          <visugpx:TrkExtension xmlns:visugpx="https://www.visugpx.com/editgpx/">
            <visugpx:node>1</visugpx:node>
            </visugpx:TrkExtension>
        </extensions>
      </trkpt>
    </trkseg>
  </trk>
</gpx>